sensor_id;sensor_type;location;lat;lon;timestamp;pressure;altitude;pressure_sealevel;temperature;humidity
84267;BME280;74414;51.098;13.716;2024-03-22T00:01:43;100540.72;;;8.81;71.34
84267;BME280;74414;51.098;13.716;2024-03-22T00:04:09;100549.00;;;8.81;71.55
84267;BME280;74414;51.098;13.716;2024-03-22T00:06:34;100541.50;;;8.81;71.44
84267;BME280;74414;51.098;13.716;2024-03-22T00:08:59;100546.25;;;8.81;71.80
84267;BME280;74414;51.098;13.716;2024-03-22T00:11:24;100551.28;;;8.79;71.78
84267;BME280;74414;51.098;13.716;2024-03-22T00:13:50;100548.53;;;8.79;71.74
84267;BME280;74414;51.098;13.716;2024-03-22T00:16:15;100543.69;;;8.76;71.96
84267;BME280;74414;51.098;13.716;2024-03-22T00:18:40;100537.38;;;8.75;72.07
84267;BME280;74414;51.098;13.716;2024-03-22T00:21:05;100541.25;;;8.74;72.13
84267;BME280;74414;51.098;13.716;2024-03-22T00:23:31;100544.38;;;8.73;71.93
84267;BME280;74414;51.098;13.716;2024-03-22T00:25:56;100541.25;;;8.74;72.00
84267;BME280;74414;51.098;13.716;2024-03-22T00:28:21;100538.38;;;8.71;71.91
84267;BME280;74414;51.098;13.716;2024-03-22T00:30:47;100536.28;;;8.68;72.20
84267;BME280;74414;51.098;13.716;2024-03-22T00:33:12;100532.75;;;8.67;72.16
84267;BME280;74414;51.098;13.716;2024-03-22T00:35:37;100525.47;;;8.63;72.37
84267;BME280;74414;51.098;13.716;2024-03-22T00:38:03;100513.97;;;8.61;72.39
84267;BME280;74414;51.098;13.716;2024-03-22T00:40:28;100516.72;;;8.61;72.35
84267;BME280;74414;51.098;13.716;2024-03-22T00:42:53;100517.91;;;8.60;72.43
84267;BME280;74414;51.098;13.716;2024-03-22T00:45:19;100521.13;;;8.62;72.09
84267;BME280;74414;51.098;13.716;2024-03-22T00:47:44;100507.53;;;8.57;72.25
84267;BME280;74414;51.098;13.716;2024-03-22T00:50:09;100517.91;;;8.60;72.24
84267;BME280;74414;51.098;13.716;2024-03-22T00:52:35;100513.50;;;8.59;72.49
84267;BME280;74414;51.098;13.716;2024-03-22T00:55:00;100515.91;;;8.60;72.34
84267;BME280;74414;51.098;13.716;2024-03-22T00:57:25;100513.63;;;8.62;72.29
84267;BME280;74414;51.098;13.716;2024-03-22T00:59:50;100514.44;;;8.63;72.27
84267;BME280;74414;51.098;13.716;2024-03-22T01:02:16;100511.31;;;8.64;72.55
84267;BME280;74414;51.098;13.716;2024-03-22T01:04:41;100507.78;;;8.64;72.69
84267;BME280;74414;51.098;13.716;2024-03-22T01:07:08;100500.97;;;8.61;72.31
84267;BME280;74414;51.098;13.716;2024-03-22T01:09:33;100497.97;;;8.54;72.15
84267;BME280;74414;51.098;13.716;2024-03-22T01:11:58;100498.78;;;8.55;72.46
84267;BME280;74414;51.098;13.716;2024-03-22T01:14:24;100497.06;;;8.50;72.18
84267;BME280;74414;51.098;13.716;2024-03-22T01:16:50;100493.69;;;8.45;72.40
84267;BME280;74414;51.098;13.716;2024-03-22T01:19:15;100482.41;;;8.38;72.18
84267;BME280;74414;51.098;13.716;2024-03-22T01:21:41;100474.91;;;8.26;72.77
84267;BME280;74414;51.098;13.716;2024-03-22T01:24:06;100479.44;;;8.22;72.71
84267;BME280;74414;51.098;13.716;2024-03-22T01:26:31;100471.28;;;8.13;73.40
84267;BME280;74414;51.098;13.716;2024-03-22T01:28:57;100462.84;;;8.10;73.69
84267;BME280;74414;51.098;13.716;2024-03-22T01:31:22;100464.00;;;8.09;74.18
84267;BME280;74414;51.098;13.716;2024-03-22T01:33:48;100466.19;;;8.03;74.25
84267;BME280;74414;51.098;13.716;2024-03-22T01:36:13;100464.56;;;8.02;74.18
84267;BME280;74414;51.098;13.716;2024-03-22T01:38:39;100462.47;;;7.99;74.11
84267;BME280;74414;51.098;13.716;2024-03-22T01:41:04;100458.91;;;7.99;74.48
84267;BME280;74414;51.098;13.716;2024-03-22T01:43:29;100460.84;;;7.98;74.38
84267;BME280;74414;51.098;13.716;2024-03-22T01:45:54;100462.84;;;7.98;74.54
84267;BME280;74414;51.098;13.716;2024-03-22T01:48:20;100463.31;;;8.00;74.91
84267;BME280;74414;51.098;13.716;2024-03-22T01:50:46;100450.75;;;8.02;74.76
84267;BME280;74414;51.098;13.716;2024-03-22T01:53:11;100444.78;;;8.00;74.80
84267;BME280;74414;51.098;13.716;2024-03-22T01:55:37;100447.53;;;8.00;74.42
84267;BME280;74414;51.098;13.716;2024-03-22T01:58:02;100443.66;;;8.01;74.49
84267;BME280;74414;51.098;13.716;2024-03-22T02:00:29;100434.22;;;8.02;74.82
84267;BME280;74414;51.098;13.716;2024-03-22T02:02:55;100437.19;;;7.97;74.53
84267;BME280;74414;51.098;13.716;2024-03-22T02:05:21;100439.72;;;7.90;74.90
84267;BME280;74414;51.098;13.716;2024-03-22T02:07:47;100436.13;;;7.90;74.70
84267;BME280;74414;51.098;13.716;2024-03-22T02:10:14;100433.03;;;7.91;74.52
84267;BME280;74414;51.098;13.716;2024-03-22T02:12:40;100429.16;;;7.92;74.94
84267;BME280;74414;51.098;13.716;2024-03-22T02:15:06;100425.44;;;7.88;74.80
84267;BME280;74414;51.098;13.716;2024-03-22T02:17:32;100424.16;;;7.86;75.24
84267;BME280;74414;51.098;13.716;2024-03-22T02:19:59;100416.13;;;7.81;74.95
84267;BME280;74414;51.098;13.716;2024-03-22T02:22:26;100411.75;;;7.80;75.34
84267;BME280;74414;51.098;13.716;2024-03-22T02:24:52;100413.09;;;7.74;75.36
84267;BME280;74414;51.098;13.716;2024-03-22T02:27:18;100400.34;;;7.69;75.44
84267;BME280;74414;51.098;13.716;2024-03-22T02:29:43;100400.94;;;7.75;74.98
84267;BME280;74414;51.098;13.716;2024-03-22T02:32:09;100396.34;;;7.79;74.55
84267;BME280;74414;51.098;13.716;2024-03-22T02:34:36;100400.59;;;7.76;74.97
84267;BME280;74414;51.098;13.716;2024-03-22T02:37:01;100395.72;;;7.73;75.48
84267;BME280;74414;51.098;13.716;2024-03-22T02:39:28;100399.53;;;7.69;75.53
84267;BME280;74414;51.098;13.716;2024-03-22T02:41:54;100388.38;;;7.65;75.30
84267;BME280;74414;51.098;13.716;2024-03-22T02:44:24;100393.53;;;7.67;75.39
84267;BME280;74414;51.098;13.716;2024-03-22T02:46:50;100389.31;;;7.69;75.61
84267;BME280;74414;51.098;13.716;2024-03-22T02:49:15;100388.38;;;7.65;75.50
84267;BME280;74414;51.098;13.716;2024-03-22T02:51:41;100388.22;;;7.62;75.76
84267;BME280;74414;51.098;13.716;2024-03-22T02:54:06;100389.25;;;7.57;75.40
84267;BME280;74414;51.098;13.716;2024-03-22T02:56:31;100388.56;;;7.60;75.38
84267;BME280;74414;51.098;13.716;2024-03-22T02:58:57;100376.94;;;7.55;75.31
84267;BME280;74414;51.098;13.716;2024-03-22T03:01:23;100383.28;;;7.55;75.32
84267;BME280;74414;51.098;13.716;2024-03-22T03:03:48;100378.56;;;7.56;75.53
84267;BME280;74414;51.098;13.716;2024-03-22T03:06:14;100384.75;;;7.53;75.15
84267;BME280;74414;51.098;13.716;2024-03-22T03:08:40;100373.72;;;7.53;75.11
84267;BME280;74414;51.098;13.716;2024-03-22T03:11:06;100377.75;;;7.55;75.59
84267;BME280;74414;51.098;13.716;2024-03-22T03:13:31;100367.56;;;7.56;75.47
84267;BME280;74414;51.098;13.716;2024-03-22T03:15:57;100370.63;;;7.54;75.11
84267;BME280;74414;51.098;13.716;2024-03-22T03:18:23;100370.97;;;7.53;75.70
84267;BME280;74414;51.098;13.716;2024-03-22T03:20:48;100373.25;;;7.51;75.49
84267;BME280;74414;51.098;13.716;2024-03-22T03:23:14;100362.56;;;7.49;75.58
84267;BME280;74414;51.098;13.716;2024-03-22T03:25:39;100361.63;;;7.45;75.70
84267;BME280;74414;51.098;13.716;2024-03-22T03:28:05;100363.44;;;7.41;75.76
84267;BME280;74414;51.098;13.716;2024-03-22T03:30:36;100362.31;;;7.42;76.00
84267;BME280;74414;51.098;13.716;2024-03-22T03:33:01;100353.91;;;7.38;76.16
84267;BME280;74414;51.098;13.716;2024-03-22T03:35:26;100360.69;;;7.41;76.08
84267;BME280;74414;51.098;13.716;2024-03-22T03:37:52;100350.50;;;7.42;76.10
84267;BME280;74414;51.098;13.716;2024-03-22T03:40:18;100344.84;;;7.38;75.58
84267;BME280;74414;51.098;13.716;2024-03-22T03:42:46;100351.31;;;7.42;76.27
84267;BME280;74414;51.098;13.716;2024-03-22T03:45:12;100344.63;;;7.43;76.24
84267;BME280;74414;51.098;13.716;2024-03-22T03:47:38;100338.19;;;7.39;76.26
84267;BME280;74414;51.098;13.716;2024-03-22T03:50:03;100338.53;;;7.38;76.30
84267;BME280;74414;51.098;13.716;2024-03-22T03:52:29;100344.84;;;7.38;76.57
84267;BME280;74414;51.098;13.716;2024-03-22T03:54:54;100348.75;;;7.37;76.39
84267;BME280;74414;51.098;13.716;2024-03-22T03:57:19;100337.72;;;7.37;76.49
84267;BME280;74414;51.098;13.716;2024-03-22T03:59:45;100341.03;;;7.30;76.37
84267;BME280;74414;51.098;13.716;2024-03-22T04:02:10;100335.72;;;7.25;76.61
84267;BME280;74414;51.098;13.716;2024-03-22T04:04:35;100335.06;;;7.28;77.06
84267;BME280;74414;51.098;13.716;2024-03-22T04:07:01;100333.44;;;7.27;76.72
84267;BME280;74414;51.098;13.716;2024-03-22T04:09:26;100337.00;;;7.28;76.88
84267;BME280;74414;51.098;13.716;2024-03-22T04:11:51;100322.75;;;7.26;76.86
84267;BME280;74414;51.098;13.716;2024-03-22T04:14:17;100328.72;;;7.28;77.04
84267;BME280;74414;51.098;13.716;2024-03-22T04:16:42;100322.41;;;7.27;76.97
84267;BME280;74414;51.098;13.716;2024-03-22T04:19:07;100324.22;;;7.23;77.38
84267;BME280;74414;51.098;13.716;2024-03-22T04:21:33;100318.59;;;7.20;76.88
84267;BME280;74414;51.098;13.716;2024-03-22T04:24:01;100315.38;;;7.18;77.12
84267;BME280;74414;51.098;13.716;2024-03-22T04:26:27;100317.00;;;7.19;77.26
84267;BME280;74414;51.098;13.716;2024-03-22T04:28:53;100310.22;;;7.16;77.22
84267;BME280;74414;51.098;13.716;2024-03-22T04:31:18;100302.28;;;7.15;77.44
84267;BME280;74414;51.098;13.716;2024-03-22T04:33:43;100306.28;;;7.17;76.92
84267;BME280;74414;51.098;13.716;2024-03-22T04:36:09;100311.16;;;7.20;77.27
84267;BME280;74414;51.098;13.716;2024-03-22T04:38:37;100303.53;;;7.17;77.17
84267;BME280;74414;51.098;13.716;2024-03-22T04:41:02;100304.56;;;7.13;77.43
84267;BME280;74414;51.098;13.716;2024-03-22T04:43:27;100296.66;;;7.11;77.37
84267;BME280;74414;51.098;13.716;2024-03-22T04:45:53;100293.56;;;7.13;77.29
84267;BME280;74414;51.098;13.716;2024-03-22T04:48:19;100292.00;;;7.24;76.29
84267;BME280;74414;51.098;13.716;2024-03-22T04:50:46;100291.22;;;7.35;75.52
84267;BME280;74414;51.098;13.716;2024-03-22T04:53:13;100289.63;;;7.34;75.85
84267;BME280;74414;51.098;13.716;2024-03-22T04:55:39;100282.84;;;7.32;75.60
84267;BME280;74414;51.098;13.716;2024-03-22T04:58:09;100286.53;;;7.36;75.46
84267;BME280;74414;51.098;13.716;2024-03-22T05:00:34;100281.69;;;7.33;75.44
84267;BME280;74414;51.098;13.716;2024-03-22T05:03:00;100285.59;;;7.32;75.32
84267;BME280;74414;51.098;13.716;2024-03-22T05:05:25;100282.25;;;7.26;76.03
84267;BME280;74414;51.098;13.716;2024-03-22T05:07:50;100291.88;;;7.20;76.09
84267;BME280;74414;51.098;13.716;2024-03-22T05:10:15;100287.69;;;7.14;76.61
84267;BME280;74414;51.098;13.716;2024-03-22T05:12:42;100283.19;;;7.10;76.84
84267;BME280;74414;51.098;13.716;2024-03-22T05:15:07;100276.75;;;7.06;77.02
84267;BME280;74414;51.098;13.716;2024-03-22T05:17:33;100272.88;;;7.07;77.19
84267;BME280;74414;51.098;13.716;2024-03-22T05:20:00;100277.38;;;7.11;76.87
84267;BME280;74414;51.098;13.716;2024-03-22T05:22:25;100275.25;;;7.29;76.53
84267;BME280;74414;51.098;13.716;2024-03-22T05:24:51;100266.09;;;7.37;76.46
84267;BME280;74414;51.098;13.716;2024-03-22T05:27:19;100257.75;;;7.46;75.70
84267;BME280;74414;51.098;13.716;2024-03-22T05:29:44;100266.38;;;7.56;75.02
84267;BME280;74414;51.098;13.716;2024-03-22T05:32:10;100265.47;;;7.64;74.88
84267;BME280;74414;51.098;13.716;2024-03-22T05:34:35;100264.13;;;7.70;74.70
84267;BME280;74414;51.098;13.716;2024-03-22T05:37:02;100263.41;;;7.73;73.87
84267;BME280;74414;51.098;13.716;2024-03-22T05:39:27;100257.69;;;7.78;73.95
84267;BME280;74414;51.098;13.716;2024-03-22T05:41:52;100250.81;;;7.84;73.68
84267;BME280;74414;51.098;13.716;2024-03-22T05:44:21;100252.53;;;7.89;73.10
84267;BME280;74414;51.098;13.716;2024-03-22T05:46:46;100251.16;;;7.95;73.04
84267;BME280;74414;51.098;13.716;2024-03-22T05:49:12;100251.63;;;7.97;72.98
84267;BME280;74414;51.098;13.716;2024-03-22T05:51:37;100249.22;;;7.95;72.87
84267;BME280;74414;51.098;13.716;2024-03-22T05:54:03;100248.97;;;8.00;72.42
84267;BME280;74414;51.098;13.716;2024-03-22T05:56:28;100251.53;;;8.05;72.72
84267;BME280;74414;51.098;13.716;2024-03-22T05:58:54;100248.88;;;8.09;72.26
84267;BME280;74414;51.098;13.716;2024-03-22T06:01:19;100249.09;;;8.16;71.92
84267;BME280;74414;51.098;13.716;2024-03-22T06:03:44;100243.50;;;8.24;71.33
84267;BME280;74414;51.098;13.716;2024-03-22T06:06:09;100239.81;;;8.33;70.77
84267;BME280;74414;51.098;13.716;2024-03-22T06:08:35;100240.50;;;8.42;70.50
84267;BME280;74414;51.098;13.716;2024-03-22T06:11:05;100238.06;;;8.52;69.64
84267;BME280;74414;51.098;13.716;2024-03-22T06:13:32;100237.00;;;8.57;70.12
84267;BME280;74414;51.098;13.716;2024-03-22T06:15:58;100233.56;;;8.60;69.90
84267;BME280;74414;51.098;13.716;2024-03-22T06:18:23;100233.31;;;8.65;68.89
84267;BME280;74414;51.098;13.716;2024-03-22T06:20:48;100232.84;;;8.75;68.87
84267;BME280;74414;51.098;13.716;2024-03-22T06:23:14;100236.25;;;8.84;68.58
84267;BME280;74414;51.098;13.716;2024-03-22T06:25:39;100229.53;;;8.97;67.91
84267;BME280;74414;51.098;13.716;2024-03-22T06:28:09;100224.84;;;9.13;67.23
84267;BME280;74414;51.098;13.716;2024-03-22T06:30:35;100228.13;;;9.31;66.60
84267;BME280;74414;51.098;13.716;2024-03-22T06:33:01;100232.88;;;9.46;65.51
84267;BME280;74414;51.098;13.716;2024-03-22T06:35:26;100226.03;;;9.71;64.85
84267;BME280;74414;51.098;13.716;2024-03-22T06:37:51;100226.38;;;10.00;63.32
84267;BME280;74414;51.098;13.716;2024-03-22T06:40:18;100213.25;;;10.29;62.60
84267;BME280;74414;51.098;13.716;2024-03-22T06:42:43;100205.06;;;10.51;61.30
84267;BME280;74414;51.098;13.716;2024-03-22T06:45:09;100206.91;;;10.63;60.72
84267;BME280;74414;51.098;13.716;2024-03-22T06:47:34;100200.22;;;10.64;60.45
84267;BME280;74414;51.098;13.716;2024-03-22T06:49:59;100192.47;;;10.73;60.33
84267;BME280;74414;51.098;13.716;2024-03-22T06:52:25;100196.06;;;10.92;60.19
84267;BME280;74414;51.098;13.716;2024-03-22T06:54:50;100193.66;;;11.10;58.68
84267;BME280;74414;51.098;13.716;2024-03-22T06:57:16;100194.28;;;11.23;58.53
84267;BME280;74414;51.098;13.716;2024-03-22T06:59:41;100192.03;;;11.09;58.89
84267;BME280;74414;51.098;13.716;2024-03-22T07:02:06;100187.69;;;10.89;58.51
84267;BME280;74414;51.098;13.716;2024-03-22T07:04:33;100188.69;;;10.81;58.62
84267;BME280;74414;51.098;13.716;2024-03-22T07:06:59;100192.78;;;10.87;58.67
84267;BME280;74414;51.098;13.716;2024-03-22T07:09:25;100193.50;;;11.03;58.69
84267;BME280;74414;51.098;13.716;2024-03-22T07:11:53;100188.63;;;10.96;59.05
84267;BME280;74414;51.098;13.716;2024-03-22T07:14:18;100185.91;;;11.00;59.36
84267;BME280;74414;51.098;13.716;2024-03-22T07:16:44;100184.31;;;11.18;58.80
84267;BME280;74414;51.098;13.716;2024-03-22T07:19:09;100191.84;;;11.40;58.16
84267;BME280;74414;51.098;13.716;2024-03-22T07:21:34;100177.69;;;11.45;57.26
84267;BME280;74414;51.098;13.716;2024-03-22T07:23:59;100180.75;;;11.63;55.56
84267;BME280;74414;51.098;13.716;2024-03-22T07:26:25;100181.19;;;11.65;55.71
84267;BME280;74414;51.098;13.716;2024-03-22T07:28:50;100180.34;;;11.83;55.03
84267;BME280;74414;51.098;13.716;2024-03-22T07:31:15;100175.66;;;11.88;54.76
84267;BME280;74414;51.098;13.716;2024-03-22T07:33:40;100177.34;;;11.96;54.49
84267;BME280;74414;51.098;13.716;2024-03-22T07:36:06;100183.03;;;12.03;54.57
84267;BME280;74414;51.098;13.716;2024-03-22T07:38:32;100178.66;;;12.02;54.55
84267;BME280;74414;51.098;13.716;2024-03-22T07:40:58;100187.34;;;12.00;54.96
84267;BME280;74414;51.098;13.716;2024-03-22T07:43:23;100179.25;;;12.14;54.64
84267;BME280;74414;51.098;13.716;2024-03-22T07:45:48;100164.66;;;12.21;54.75
84267;BME280;74414;51.098;13.716;2024-03-22T07:48:14;100168.88;;;12.37;54.21
84267;BME280;74414;51.098;13.716;2024-03-22T07:50:39;100169.38;;;12.43;54.03
84267;BME280;74414;51.098;13.716;2024-03-22T07:53:05;100168.84;;;12.34;54.03
84267;BME280;74414;51.098;13.716;2024-03-22T07:55:30;100158.00;;;12.25;54.36
84267;BME280;74414;51.098;13.716;2024-03-22T07:57:55;100157.94;;;12.22;54.58
84267;BME280;74414;51.098;13.716;2024-03-22T08:00:23;100159.31;;;12.35;54.61
84267;BME280;74414;51.098;13.716;2024-03-22T08:02:50;100154.91;;;12.60;54.16
84267;BME280;74414;51.098;13.716;2024-03-22T08:05:15;100152.47;;;12.55;53.69
84267;BME280;74414;51.098;13.716;2024-03-22T08:07:40;100154.06;;;12.56;54.18
84267;BME280;74414;51.098;13.716;2024-03-22T08:10:06;100150.03;;;12.83;53.77
84267;BME280;74414;51.098;13.716;2024-03-22T08:12:33;100143.03;;;12.96;53.20
84267;BME280;74414;51.098;13.716;2024-03-22T08:14:58;100138.25;;;12.93;52.95
84267;BME280;74414;51.098;13.716;2024-03-22T08:17:24;100144.94;;;12.89;53.28
84267;BME280;74414;51.098;13.716;2024-03-22T08:19:49;100133.19;;;13.02;53.13
84267;BME280;74414;51.098;13.716;2024-03-22T08:22:14;100135.78;;;13.21;53.16
84267;BME280;74414;51.098;13.716;2024-03-22T08:24:40;100133.63;;;13.44;52.24
84267;BME280;74414;51.098;13.716;2024-03-22T08:27:05;100129.84;;;13.63;51.85
84267;BME280;74414;51.098;13.716;2024-03-22T08:29:30;100131.06;;;13.69;51.59
84267;BME280;74414;51.098;13.716;2024-03-22T08:31:55;100125.00;;;13.56;51.56
84267;BME280;74414;51.098;13.716;2024-03-22T08:34:21;100123.56;;;13.73;51.20
84267;BME280;74414;51.098;13.716;2024-03-22T08:36:47;100121.28;;;13.86;50.81
84267;BME280;74414;51.098;13.716;2024-03-22T08:39:13;100117.75;;;13.92;51.55
84267;BME280;74414;51.098;13.716;2024-03-22T08:41:38;100114.25;;;14.06;51.25
84267;BME280;74414;51.098;13.716;2024-03-22T08:44:03;100114.31;;;14.16;50.61
84267;BME280;74414;51.098;13.716;2024-03-22T08:46:29;100115.75;;;13.93;50.56
84267;BME280;74414;51.098;13.716;2024-03-22T08:48:54;100109.34;;;13.89;51.09
84267;BME280;74414;51.098;13.716;2024-03-22T08:51:21;100107.81;;;13.95;50.47
84267;BME280;74414;51.098;13.716;2024-03-22T08:53:46;100110.47;;;14.31;49.76
84267;BME280;74414;51.098;13.716;2024-03-22T08:56:11;100105.09;;;14.77;48.78
84267;BME280;74414;51.098;13.716;2024-03-22T08:58:38;100106.00;;;15.09;46.78
84267;BME280;74414;51.098;13.716;2024-03-22T09:01:04;100106.34;;;15.04;46.81
84267;BME280;74414;51.098;13.716;2024-03-22T09:03:29;100106.03;;;15.27;46.55
84267;BME280;74414;51.098;13.716;2024-03-22T09:05:55;100100.47;;;15.76;44.98
84267;BME280;74414;51.098;13.716;2024-03-22T09:08:21;100098.47;;;16.01;44.92
84267;BME280;74414;51.098;13.716;2024-03-22T09:10:47;100096.50;;;17.06;43.29
84267;BME280;74414;51.098;13.716;2024-03-22T09:13:12;100099.00;;;18.37;39.86
84267;BME280;74414;51.098;13.716;2024-03-22T09:15:38;100100.31;;;19.76;36.88
84267;BME280;74414;51.098;13.716;2024-03-22T09:18:04;100094.41;;;19.93;35.72
84267;BME280;74414;51.098;13.716;2024-03-22T09:20:29;100084.09;;;19.37;36.88
84267;BME280;74414;51.098;13.716;2024-03-22T09:22:54;100096.16;;;18.77;38.19
84267;BME280;74414;51.098;13.716;2024-03-22T09:25:20;100102.59;;;18.74;37.80
84267;BME280;74414;51.098;13.716;2024-03-22T09:27:45;100093.94;;;19.49;36.78
84267;BME280;74414;51.098;13.716;2024-03-22T09:30:11;100094.34;;;19.97;35.55
84267;BME280;74414;51.098;13.716;2024-03-22T09:32:37;100089.91;;;19.96;35.40
84267;BME280;74414;51.098;13.716;2024-03-22T09:35:02;100086.66;;;20.44;34.25
84267;BME280;74414;51.098;13.716;2024-03-22T09:37:27;100083.44;;;20.81;33.77
84267;BME280;74414;51.098;13.716;2024-03-22T09:39:53;100078.75;;;21.30;32.77
84267;BME280;74414;51.098;13.716;2024-03-22T09:42:21;100079.16;;;21.48;32.92
84267;BME280;74414;51.098;13.716;2024-03-22T09:44:48;100074.41;;;21.09;33.07
84267;BME280;74414;51.098;13.716;2024-03-22T09:47:17;100073.03;;;20.19;34.64
84267;BME280;74414;51.098;13.716;2024-03-22T09:49:44;100063.09;;;21.29;33.24
84267;BME280;74414;51.098;13.716;2024-03-22T09:52:14;100069.22;;;22.49;31.78
84267;BME280;74414;51.098;13.716;2024-03-22T09:54:43;100067.56;;;23.68;30.55
84267;BME280;74414;51.098;13.716;2024-03-22T09:57:18;100069.78;;;25.28;27.92
84267;BME280;74414;51.098;13.716;2024-03-22T09:59:44;100065.25;;;25.00;28.19
84267;BME280;74414;51.098;13.716;2024-03-22T10:02:13;100067.38;;;24.22;28.71
84267;BME280;74414;51.098;13.716;2024-03-22T10:04:41;100052.28;;;24.47;28.49
84267;BME280;74414;51.098;13.716;2024-03-22T10:07:07;100046.31;;;23.64;29.78
84267;BME280;74414;51.098;13.716;2024-03-22T10:09:36;100048.41;;;21.53;33.00
84267;BME280;74414;51.098;13.716;2024-03-22T10:12:02;100046.03;;;21.36;33.77
84267;BME280;74414;51.098;13.716;2024-03-22T10:14:29;100036.13;;;20.56;34.79
84267;BME280;74414;51.098;13.716;2024-03-22T10:16:57;100043.13;;;19.40;37.14
84267;BME280;74414;51.098;13.716;2024-03-22T10:19:23;100028.00;;;19.03;37.93
84267;BME280;74414;51.098;13.716;2024-03-22T10:22:04;100027.06;;;19.40;37.60
84267;BME280;74414;51.098;13.716;2024-03-22T10:24:30;100028.50;;;20.37;35.94
84267;BME280;74414;51.098;13.716;2024-03-22T10:26:56;100031.53;;;22.55;32.28
84267;BME280;74414;51.098;13.716;2024-03-22T10:29:21;100043.19;;;24.52;30.71
84267;BME280;74414;51.098;13.716;2024-03-22T10:31:48;100029.84;;;23.96;30.44
84267;BME280;74414;51.098;13.716;2024-03-22T10:34:14;100019.34;;;21.24;34.24
84267;BME280;74414;51.098;13.716;2024-03-22T10:36:40;100012.63;;;19.65;36.37
84267;BME280;74414;51.098;13.716;2024-03-22T10:39:06;100011.56;;;19.29;37.54
84267;BME280;74414;51.098;13.716;2024-03-22T10:41:33;100006.34;;;19.77;37.14
84267;BME280;74414;51.098;13.716;2024-03-22T10:43:58;100005.41;;;21.82;33.36
84267;BME280;74414;51.098;13.716;2024-03-22T10:46:29;100006.66;;;22.38;32.68
84267;BME280;74414;51.098;13.716;2024-03-22T10:48:55;100009.38;;;23.08;31.91
84267;BME280;74414;51.098;13.716;2024-03-22T10:51:21;100005.31;;;23.34;31.14
84267;BME280;74414;51.098;13.716;2024-03-22T10:53:49;99998.13;;;22.54;31.87
84267;BME280;74414;51.098;13.716;2024-03-22T10:56:16;99985.75;;;21.78;33.62
84267;BME280;74414;51.098;13.716;2024-03-22T10:58:42;99991.78;;;20.80;35.12
84267;BME280;74414;51.098;13.716;2024-03-22T11:01:21;99972.13;;;20.02;36.74
84267;BME280;74414;51.098;13.716;2024-03-22T11:03:47;99976.78;;;19.69;37.10
84267;BME280;74414;51.098;13.716;2024-03-22T11:06:12;99964.84;;;19.19;38.35
84267;BME280;74414;51.098;13.716;2024-03-22T11:08:38;99972.84;;;19.66;37.66
84267;BME280;74414;51.098;13.716;2024-03-22T11:11:10;99960.84;;;19.16;38.46
84267;BME280;74414;51.098;13.716;2024-03-22T11:13:36;99956.47;;;18.88;38.98
84267;BME280;74414;51.098;13.716;2024-03-22T11:16:04;99946.63;;;18.77;39.00
84267;BME280;74414;51.098;13.716;2024-03-22T11:18:29;99942.88;;;18.60;39.72
84267;BME280;74414;51.098;13.716;2024-03-22T11:20:55;99932.03;;;18.62;40.64
84267;BME280;74414;51.098;13.716;2024-03-22T11:23:20;99932.91;;;18.82;39.42
84267;BME280;74414;51.098;13.716;2024-03-22T11:25:45;99923.66;;;18.85;40.12
84267;BME280;74414;51.098;13.716;2024-03-22T11:28:11;99923.09;;;18.94;40.24
84267;BME280;74414;51.098;13.716;2024-03-22T11:30:37;99917.81;;;18.99;39.49
84267;BME280;74414;51.098;13.716;2024-03-22T11:33:04;99915.78;;;19.00;39.12
84267;BME280;74414;51.098;13.716;2024-03-22T11:35:30;99916.41;;;19.11;39.24
84267;BME280;74414;51.098;13.716;2024-03-22T11:37:56;99907.44;;;18.96;39.16
84267;BME280;74414;51.098;13.716;2024-03-22T11:40:27;99904.50;;;18.80;39.37
84267;BME280;74414;51.098;13.716;2024-03-22T11:42:55;99899.59;;;18.61;39.86
84267;BME280;74414;51.098;13.716;2024-03-22T11:45:22;99908.03;;;18.84;39.85
84267;BME280;74414;51.098;13.716;2024-03-22T11:47:48;99893.63;;;19.29;39.31
84267;BME280;74414;51.098;13.716;2024-03-22T11:50:14;99880.53;;;19.22;38.71
84267;BME280;74414;51.098;13.716;2024-03-22T11:52:41;99883.88;;;19.14;39.10
84267;BME280;74414;51.098;13.716;2024-03-22T11:55:07;99877.84;;;18.92;39.33
84267;BME280;74414;51.098;13.716;2024-03-22T11:57:32;99878.47;;;18.80;39.61
84267;BME280;74414;51.098;13.716;2024-03-22T12:00:01;99876.19;;;18.71;39.72
84267;BME280;74414;51.098;13.716;2024-03-22T12:02:31;99870.41;;;18.55;39.96
84267;BME280;74414;51.098;13.716;2024-03-22T12:04:56;99870.53;;;18.48;39.77
84267;BME280;74414;51.098;13.716;2024-03-22T12:07:23;99866.34;;;18.33;40.59
84267;BME280;74414;51.098;13.716;2024-03-22T12:09:49;99869.41;;;18.69;40.25
84267;BME280;74414;51.098;13.716;2024-03-22T12:12:15;99867.22;;;19.49;38.93
84267;BME280;74414;51.098;13.716;2024-03-22T12:14:40;99854.00;;;20.05;38.07
84267;BME280;74414;51.098;13.716;2024-03-22T12:17:06;99859.41;;;20.51;36.92
84267;BME280;74414;51.098;13.716;2024-03-22T12:19:32;99856.97;;;21.02;36.94
84267;BME280;74414;51.098;13.716;2024-03-22T12:21:58;99846.03;;;20.88;36.63
84267;BME280;74414;51.098;13.716;2024-03-22T12:24:24;99856.31;;;20.46;37.44
84267;BME280;74414;51.098;13.716;2024-03-22T12:26:49;99850.88;;;20.19;37.24
84267;BME280;74414;51.098;13.716;2024-03-22T12:29:16;99839.19;;;19.65;38.94
84267;BME280;74414;51.098;13.716;2024-03-22T12:31:41;99849.72;;;19.42;38.96
84267;BME280;74414;51.098;13.716;2024-03-22T12:34:07;99851.88;;;19.31;39.19
84267;BME280;74414;51.098;13.716;2024-03-22T12:36:32;99845.47;;;19.53;38.79
84267;BME280;74414;51.098;13.716;2024-03-22T12:38:57;99845.53;;;19.27;39.73
84267;BME280;74414;51.098;13.716;2024-03-22T12:41:23;99842.63;;;19.34;39.52